Time;durP1;ratioP1;P1;durP2;ratioP2;P2;SDS_P1;SDS_P2;PMS_P1;PMS_P2;Temp;Humidity;BMP_temperature;BMP_pressure;BME280_temperature;BME280_humidity;BME280_pressure;Samples;Min_cycle;Max_cycle;Signal;HPM_P1;HPM_P2
2021/12/11 00:00:50;;;;;;;13.35;5.80;;;3.80;99.90;;;;;;4860715;29;20073;-89
2021/12/11 00:04:03;;;;;;;19.23;5.35;;;3.80;99.90;;;;;;4862320;29;20053;-89
2021/12/11 00:06:58;;;;;;;11.48;4.57;;;3.90;99.90;;;;;;4837989;29;20053;-88
2021/12/11 00:09:56;;;;;;;14.90;5.38;;;3.80;99.90;;;;;;4871622;29;20049;-88
2021/12/11 00:12:46;;;;;;;18.15;4.18;;;3.70;99.90;;;;;;4863676;29;20059;-87
2021/12/11 00:15:39;;;;;;;14.90;4.78;;;3.70;99.90;;;;;;4853122;29;20038;-89
2021/12/11 00:18:53;;;;;;;13.85;5.63;;;3.70;99.90;;;;;;4825558;29;20061;-89
2021/12/11 00:21:36;;;;;;;16.02;5.00;;;3.70;99.90;;;;;;4873766;29;20652;-88
2021/12/11 00:24:18;;;;;;;14.73;3.83;;;3.70;99.90;;;;;;4858995;29;20062;-89
2021/12/11 00:27:07;;;;;;;14.48;5.53;;;5.70;99.90;;;;;;4844419;29;20068;-88
2021/12/11 00:29:43;;;;;;;16.55;5.03;;;4.10;99.90;;;;;;4857444;29;20110;-87
2021/12/11 00:32:32;;;;;;;11.30;4.32;;;3.60;99.90;;;;;;4858172;29;20581;-88
2021/12/11 00:35:40;;;;;;;6.70;3.95;;;3.60;99.90;;;;;;4877911;29;20049;-88
2021/12/11 00:38:35;;;;;;;16.23;3.50;;;3.50;99.90;;;;;;4878374;29;20061;-88
2021/12/11 00:41:10;;;;;;;17.10;7.03;;;3.50;99.90;;;;;;4848742;29;20070;-87
2021/12/11 00:44:01;;;;;;;12.23;4.45;;;4.40;99.90;;;;;;4850780;29;20053;-88
2021/12/11 00:46:33;;;;;;;17.30;5.10;;;3.40;99.90;;;;;;4863253;29;20627;-87
2021/12/11 00:49:27;;;;;;;11.63;4.72;;;3.50;99.90;;;;;;4849130;29;20056;-88
2021/12/11 00:52:00;;;;;;;13.40;4.63;;;3.40;99.90;;;;;;4851925;29;20041;-88
2021/12/11 00:54:40;;;;;;;13.32;3.90;;;3.50;99.90;;;;;;4867032;29;20048;-88
2021/12/11 00:57:19;;;;;;;6.43;3.33;;;4.20;99.90;;;;;;4870802;29;20047;-88
2021/12/11 01:00:22;;;;;;;14.50;6.07;;;3.40;99.90;;;;;;4897859;29;20033;-88
2021/12/11 01:02:57;;;;;;;15.57;4.25;;;3.40;99.90;;;;;;4874688;29;20040;-88
2021/12/11 01:05:55;;;;;;;12.00;4.13;;;3.40;99.90;;;;;;4873022;29;20063;-88
2021/12/11 01:08:40;;;;;;;15.88;4.00;;;3.30;99.90;;;;;;4870545;29;20049;-88
2021/12/11 01:11:33;;;;;;;9.85;4.18;;;3.40;99.90;;;;;;4856914;29;20057;-88
2021/12/11 01:14:37;;;;;;;14.48;4.38;;;5.10;99.90;;;;;;4886395;29;20036;-88
2021/12/11 01:17:21;;;;;;;15.32;3.88;;;3.40;99.90;;;;;;4857124;29;20048;-89
2021/12/11 01:20:01;;;;;;;20.27;6.15;;;3.60;99.90;;;;;;4865129;29;20049;-88
2021/12/11 01:22:37;;;;;;;14.30;4.55;;;4.30;99.90;;;;;;4845642;29;20062;-88
2021/12/11 01:25:15;;;;;;;17.58;4.88;;;3.40;99.90;;;;;;4890135;29;20061;-87
2021/12/11 01:27:48;;;;;;;20.33;6.07;;;3.40;99.90;;;;;;4851877;29;20046;-88
2021/12/11 01:30:30;;;;;;;13.90;4.78;;;5.10;99.90;;;;;;4840115;29;20050;-89
2021/12/11 01:33:01;;;;;;;21.92;5.68;;;3.30;99.90;;;;;;4826371;29;20068;-88
2021/12/11 01:35:36;;;;;;;11.83;5.33;;;4.90;99.90;;;;;;4858512;29;20521;-88
2021/12/11 01:38:11;;;;;;;11.52;5.55;;;3.40;99.90;;;;;;4862652;29;20057;-88
2021/12/11 01:41:23;;;;;;;13.52;5.95;;;3.30;99.90;;;;;;4878149;29;20045;-88
2021/12/11 01:44:02;;;;;;;16.83;5.32;;;2.90;99.90;;;;;;4876609;29;20057;-89
2021/12/11 01:46:48;;;;;;;7.53;4.32;;;3.10;99.90;;;;;;4867140;29;20068;-88
2021/12/11 01:49:38;;;;;;;;;;;1.90;99.90;;;;;;4881135;29;20064;-88
2021/12/11 01:52:40;;;;;;;9.85;4.40;;;3.20;99.90;;;;;;4879109;29;19912;-88
2021/12/11 01:55:38;;;;;;;16.77;5.28;;;3.10;99.90;;;;;;4871139;29;20037;-88
2021/12/11 01:58:50;;;;;;;13.57;5.70;;;3.10;99.90;;;;;;4884814;29;20052;-88
2021/12/11 02:01:37;;;;;;;10.55;3.90;;;3.10;99.90;;;;;;4897213;29;20054;-88
2021/12/11 02:04:10;;;;;;;20.80;4.82;;;3.10;99.90;;;;;;4873189;29;20069;-88
2021/12/11 02:06:49;;;;;;;14.90;5.05;;;3.00;99.90;;;;;;4872923;29;20061;-88
2021/12/11 02:10:10;;;;;;;17.45;4.55;;;4.90;99.90;;;;;;4845118;29;20046;-88
2021/12/11 02:13:05;;;;;;;15.75;4.03;;;2.10;99.90;;;;;;4868437;29;20050;-88
2021/12/11 02:16:06;;;;;;;21.83;5.03;;;3.00;99.90;;;;;;4844776;29;20068;-88
2021/12/11 02:19:18;;;;;;;8.13;3.40;;;3.10;99.90;;;;;;4856126;29;20388;-88
2021/12/11 02:21:57;;;;;;;18.92;5.25;;;3.00;99.90;;;;;;4870321;29;20061;-88
2021/12/11 02:24:46;;;;;;;15.00;4.25;;;3.10;99.90;;;;;;4842452;29;20090;-87
2021/12/11 02:27:39;;;;;;;19.15;4.43;;;3.00;99.90;;;;;;4853234;29;20121;-88
2021/12/11 02:30:38;;;;;;;14.32;4.47;;;3.90;99.90;;;;;;4876695;29;20065;-88
2021/12/11 02:33:29;;;;;;;15.40;5.90;;;4.40;99.90;;;;;;4876671;29;20065;-89
2021/12/11 02:36:13;;;;;;;14.95;4.88;;;3.00;99.90;;;;;;4849205;29;20049;-88
2021/12/11 02:39:12;;;;;;;20.52;4.95;;;3.00;99.90;;;;;;4863362;29;20060;-88
2021/12/11 02:42:26;;;;;;;21.13;6.55;;;3.10;99.90;;;;;;4894249;29;20053;-88
2021/12/11 02:45:18;;;;;;;17.58;4.32;;;3.00;99.90;;;;;;4899960;23;20056;-88
2021/12/11 02:48:15;;;;;;;11.77;5.10;;;3.00;99.90;;;;;;4909059;29;20048;-88
2021/12/11 02:51:25;;;;;;;11.48;4.75;;;3.50;99.90;;;;;;4939566;29;20048;-88
2021/12/11 02:54:16;;;;;;;14.60;4.78;;;3.10;99.90;;;;;;4918811;29;20052;-88
2021/12/11 02:57:21;;;;;;;12.18;5.28;;;2.90;99.90;;;;;;4902459;29;20048;-88
2021/12/11 03:00:17;;;;;;;10.88;4.53;;;3.00;99.90;;;;;;4915333;29;20052;-88
2021/12/11 03:03:14;;;;;;;15.23;4.72;;;3.00;99.90;;;;;;4933602;29;20064;-88
2021/12/11 03:06:02;;;;;;;12.50;3.50;;;3.60;99.90;;;;;;4886645;29;20066;-88
2021/12/11 03:09:28;;;;;;;20.20;5.07;;;2.90;99.90;;;;;;4900492;29;20060;-88
2021/12/11 03:12:03;;;;;;;13.55;4.53;;;3.00;99.90;;;;;;4900604;29;20054;-88
2021/12/11 03:14:32;;;;;;;12.85;5.95;;;2.90;99.90;;;;;;4883887;29;20058;-88
2021/12/11 03:17:09;;;;;;;11.98;4.88;;;1.50;99.90;;;;;;4883847;29;20060;-88
2021/12/11 03:19:56;;;;;;;16.30;6.50;;;3.00;99.90;;;;;;4899151;29;20044;-88
2021/12/11 03:22:33;;;;;;;14.80;4.15;;;2.90;99.90;;;;;;4900693;29;20317;-88
2021/12/11 03:25:26;;;;;;;16.25;5.75;;;2.90;99.90;;;;;;4900054;29;20056;-88
2021/12/11 03:28:20;;;;;;;16.02;5.65;;;4.20;99.90;;;;;;4917242;29;20510;-89
2021/12/11 03:31:08;;;;;;;12.00;4.43;;;4.60;99.90;;;;;;4877514;29;20055;-88
2021/12/11 03:33:55;;;;;;;17.33;4.90;;;3.30;99.90;;;;;;4881395;29;20061;-88
2021/12/11 03:36:43;;;;;;;15.18;5.85;;;3.10;99.90;;;;;;4879361;29;20065;-88
2021/12/11 03:39:44;;;;;;;14.95;4.55;;;3.10;99.90;;;;;;4926359;29;20056;-88
2021/12/11 03:42:26;;;;;;;14.48;5.57;;;3.00;99.90;;;;;;4915514;29;20488;-88
2021/12/11 03:45:03;;;;;;;14.40;4.35;;;3.20;99.90;;;;;;4929131;29;20062;-88
2021/12/11 03:47:42;;;;;;;14.95;8.00;;;3.30;99.90;;;;;;4901626;29;20067;-89
2021/12/11 03:50:29;;;;;;;14.63;5.40;;;3.20;99.90;;;;;;4904323;29;20058;-88
2021/12/11 03:53:15;;;;;;;10.48;3.72;;;4.60;99.90;;;;;;4901982;29;20066;-88
2021/12/11 03:56:04;;;;;;;15.75;4.70;;;5.40;99.90;;;;;;4918379;29;20071;-89
2021/12/11 03:58:57;;;;;;;16.63;4.65;;;3.40;99.90;;;;;;4905759;29;20066;-88
2021/12/11 04:01:50;;;;;;;15.05;5.72;;;4.90;99.90;;;;;;4861299;29;20048;-89
2021/12/11 04:04:36;;;;;;;12.73;4.25;;;3.30;99.90;;;;;;4884752;29;20053;-88
2021/12/11 04:07:42;;;;;;;10.07;4.13;;;4.20;99.90;;;;;;4881144;29;20264;-88
2021/12/11 04:10:28;;;;;;;14.20;4.67;;;3.40;99.90;;;;;;4907706;29;20053;-88
2021/12/11 04:13:14;;;;;;;10.85;4.20;;;3.30;99.90;;;;;;4895965;29;20060;-89
2021/12/11 04:16:00;;;;;;;13.32;4.05;;;3.30;99.90;;;;;;4896303;29;20056;-88
2021/12/11 04:18:44;;;;;;;16.52;4.38;;;3.70;99.90;;;;;;4848779;29;20057;-87
2021/12/11 04:21:29;;;;;;;12.52;5.88;;;5.10;99.90;;;;;;4893667;29;20055;-88
2021/12/11 04:24:13;;;;;;;11.48;3.78;;;2.80;99.90;;;;;;4849872;29;20049;-89
2021/12/11 04:27:25;;;;;;;18.58;5.45;;;3.10;99.90;;;;;;4879154;29;20065;-88
2021/12/11 04:30:21;;;;;;;22.98;4.40;;;4.20;99.90;;;;;;4891245;29;20059;-88
2021/12/11 04:33:13;;;;;;;17.00;5.53;;;3.10;99.90;;;;;;4892076;29;20061;-87
2021/12/11 04:36:00;;;;;;;17.58;5.55;;;3.00;99.90;;;;;;4895574;29;20068;-89
2021/12/11 04:38:48;;;;;;;15.60;4.43;;;4.90;99.90;;;;;;4880429;29;20036;-88
2021/12/11 04:41:42;;;;;;;14.45;4.65;;;2.90;99.90;;;;;;4900802;29;20074;-88
2021/12/11 04:44:35;;;;;;;13.20;4.53;;;3.00;99.90;;;;;;4900927;29;20587;-87
2021/12/11 04:47:38;;;;;;;16.23;3.92;;;2.90;99.90;;;;;;4914787;29;20056;-86
2021/12/11 04:50:48;;;;;;;14.98;4.43;;;3.90;99.90;;;;;;4916375;29;20056;-88
2021/12/11 05:05:03;;;;;;;10.73;4.03;;;3.20;99.90;;;;;;4934447;29;20056;-88
2021/12/11 05:08:37;;;;;;;20.33;4.53;;;4.70;99.90;;;;;;4889728;29;20062;-88
2021/12/11 05:11:39;;;;;;;11.82;4.65;;;3.30;99.90;;;;;;4916145;29;20032;-89
2021/12/11 05:14:25;;;;;;;16.00;4.38;;;4.60;99.90;;;;;;4900930;29;20067;-89
2021/12/11 05:16:55;;;;;;;12.45;4.90;;;3.60;99.90;;;;;;4902572;29;20037;-88
2021/12/11 05:19:40;;;;;;;25.25;6.35;;;3.40;99.90;;;;;;4890361;29;20061;-88
2021/12/11 05:22:11;;;;;;;18.13;4.88;;;4.70;99.90;;;;;;4934830;29;20037;-88
2021/12/11 05:24:47;;;;;;;15.32;5.00;;;3.40;99.90;;;;;;4904711;29;20043;-88
2021/12/11 05:27:22;;;;;;;10.68;3.78;;;3.50;99.90;;;;;;4920176;29;20051;-89
2021/12/11 05:29:58;;;;;;;21.00;4.75;;;3.50;99.90;;;;;;4897334;29;20049;-89
2021/12/11 05:32:39;;;;;;;22.00;4.95;;;3.50;99.90;;;;;;4874861;29;20076;-88
2021/12/11 05:35:23;;;;;;;14.38;5.05;;;3.50;99.90;;;;;;4890735;29;20134;-88
2021/12/11 05:37:55;;;;;;;32.67;7.43;;;3.70;99.90;;;;;;4890809;29;20048;-88
2021/12/11 05:40:35;;;;;;;19.17;5.70;;;3.80;99.90;;;;;;4891665;29;20056;-87
2021/12/11 05:43:08;;;;;;;21.65;5.03;;;3.60;99.90;;;;;;4909944;29;20052;-87
2021/12/11 05:45:44;;;;;;;27.08;5.78;;;5.50;99.90;;;;;;4878579;29;20064;-88
2021/12/11 05:48:25;;;;;;;12.48;5.45;;;3.70;99.90;;;;;;4875205;29;20057;-88
2021/12/11 05:50:57;;;;;;;13.93;4.45;;;4.70;99.90;;;;;;4857318;29;20048;-88
2021/12/11 05:53:32;;;;;;;13.52;5.35;;;3.60;99.90;;;;;;4843929;29;20073;-88
2021/12/11 05:56:12;;;;;;;17.05;4.53;;;5.10;99.90;;;;;;4873352;29;20065;-89
2021/12/11 06:01:46;;;;;;;18.65;4.63;;;3.70;99.90;;;;;;4868950;29;20064;-88
2021/12/11 06:04:24;;;;;;;19.88;5.35;;;3.70;99.90;;;;;;4854357;29;20046;-88
2021/12/11 06:06:59;;;;;;;17.95;4.45;;;3.70;99.90;;;;;;4840374;29;20064;-88
2021/12/11 06:09:30;;;;;;;17.40;5.57;;;3.70;99.90;;;;;;4842276;29;20054;-89
2021/12/11 06:12:12;;;;;;;15.70;5.97;;;3.60;99.90;;;;;;4868190;29;20073;-88
2021/12/11 06:17:41;;;;;;;16.15;7.75;;;3.70;99.90;;;;;;4838753;29;20060;-89
2021/12/11 06:20:19;;;;;;;14.80;5.82;;;3.70;99.90;;;;;;4854368;29;20061;-88
2021/12/11 06:22:48;;;;;;;24.27;4.40;;;3.70;99.90;;;;;;4852205;29;20061;-89
2021/12/11 06:25:22;;;;;;;13.57;4.13;;;3.80;99.90;;;;;;4851942;29;20045;-88
2021/12/11 06:27:50;;;;;;;27.55;5.97;;;3.80;99.90;;;;;;4853047;29;20073;-88
2021/12/11 06:30:40;;;;;;;14.50;3.75;;;3.70;99.90;;;;;;4839420;29;20056;-89
2021/12/11 06:33:12;;;;;;;20.02;6.03;;;3.70;99.90;;;;;;4855470;29;20061;-88
2021/12/11 06:36:06;;;;;;;12.05;4.78;;;3.70;99.90;;;;;;4839480;29;20058;-88
2021/12/11 06:38:37;;;;;;;19.75;4.35;;;3.70;99.90;;;;;;4824964;29;20057;-88
2021/12/11 06:41:09;;;;;;;18.58;4.72;;;3.80;99.90;;;;;;4840221;29;20057;-88
2021/12/11 06:43:42;;;;;;;17.52;4.47;;;5.50;99.90;;;;;;4854137;29;20061;-87
2021/12/11 06:46:14;;;;;;;12.02;4.00;;;3.70;99.90;;;;;;4854448;29;20947;-88
2021/12/11 06:48:44;;;;;;;20.65;5.43;;;3.70;99.90;;;;;;4853292;29;20061;-89
2021/12/11 06:51:17;;;;;;;15.25;5.38;;;3.70;99.90;;;;;;4862579;29;20053;-88
2021/12/11 06:54:01;;;;;;;17.38;6.05;;;3.80;99.90;;;;;;4857666;29;20048;-89
2021/12/11 06:56:30;;;;;;;17.13;5.43;;;3.80;99.90;;;;;;4872521;29;20116;-89
2021/12/11 06:59:11;;;;;;;19.95;5.55;;;3.80;99.90;;;;;;4860763;29;20478;-88
2021/12/11 07:01:42;;;;;;;13.18;4.00;;;3.80;99.90;;;;;;4853686;29;20080;-87
2021/12/11 07:04:13;;;;;;;11.88;4.72;;;3.80;99.90;;;;;;4855725;29;20050;-88
2021/12/11 07:06:54;;;;;;;16.52;5.45;;;3.90;99.90;;;;;;4889866;29;20053;-88
2021/12/11 07:09:39;;;;;;;22.67;5.28;;;3.80;99.90;;;;;;4874603;29;20048;-89
2021/12/11 07:12:11;;;;;;;21.08;5.47;;;4.80;99.90;;;;;;4876264;29;20053;-89
2021/12/11 07:14:57;;;;;;;20.02;6.10;;;4.00;99.90;;;;;;4828644;29;20057;-88
2021/12/11 07:17:30;;;;;;;23.45;10.02;;;3.90;99.90;;;;;;4839550;29;20060;-89
2021/12/11 07:20:16;;;;;;;16.80;5.80;;;3.90;99.90;;;;;;4841960;29;20050;-89
2021/12/11 07:22:46;;;;;;;15.90;6.68;;;3.90;99.90;;;;;;4851863;29;20096;-88
2021/12/11 07:25:26;;;;;;;22.23;5.17;;;4.50;99.90;;;;;;4845050;29;20061;-89
2021/12/11 07:28:15;;;;;;;18.35;5.55;;;4.00;99.90;;;;;;4878563;23;20060;-89
2021/12/11 07:30:49;;;;;;;14.80;5.55;;;4.00;99.90;;;;;;4882933;29;20050;-89
2021/12/11 07:33:26;;;;;;;16.88;4.82;;;4.00;99.90;;;;;;4858250;29;20057;-89
2021/12/11 07:36:25;;;;;;;;;;;;;;;;;;;;;
2021/12/11 07:39:11;;;;;;;19.73;5.80;;;4.10;99.90;;;;;;4861660;29;20059;-88
2021/12/11 07:41:44;;;;;;;13.57;4.60;;;4.10;99.90;;;;;;4871015;23;20044;-89
2021/12/11 07:44:14;;;;;;;13.48;5.88;;;4.20;99.90;;;;;;4879366;29;20052;-89
2021/12/11 07:47:17;;;;;;;15.57;4.88;;;4.20;99.90;;;;;;4897925;29;20404;-89
2021/12/11 09:07:37;;;;;;;20.40;8.45;;;4.70;99.90;;;;;;5346546;23;20030;-94
2021/12/11 09:11:50;;;;;;;19.15;5.32;;;4.70;99.90;;;;;;4855791;29;20058;-93
2021/12/11 09:15:11;;;;;;;19.33;7.95;;;5.00;99.90;;;;;;4823137;29;20066;-93
2021/12/11 09:19:00;;;;;;;18.75;6.35;;;4.90;99.90;;;;;;4860036;29;20065;-93
2021/12/11 09:22:18;;;;;;;24.27;8.35;;;5.00;99.90;;;;;;4885974;23;20048;-93
2021/12/11 09:29:54;;;;;;;18.90;6.90;;;5.10;99.90;;;;;;4908335;29;20044;-91
2021/12/11 09:33:15;;;;;;;20.42;5.47;;;4.00;99.90;;;;;;4902119;29;20062;-91
2021/12/11 09:36:36;;;;;;;14.07;6.28;;;5.60;99.90;;;;;;4901262;29;20052;-92
2021/12/11 09:39:26;;;;;;;10.38;3.67;;;5.50;99.90;;;;;;4915420;29;20531;-91
2021/12/11 09:42:03;;;;;;;27.70;6.65;;;5.30;99.90;;;;;;4915298;29;20055;-92
2021/12/11 09:44:43;;;;;;;12.05;4.25;;;6.10;99.90;;;;;;4895772;29;20405;-92
2021/12/11 09:47:28;;;;;;;18.67;4.85;;;5.70;99.90;;;;;;4914970;29;20064;-93
2021/12/11 09:50:09;;;;;;;14.55;4.82;;;6.40;99.90;;;;;;4926556;29;20048;-93
2021/12/11 09:56:57;;;;;;;24.38;6.30;;;5.70;99.90;;;;;;4893712;29;20405;-92
2021/12/11 09:59:34;;;;;;;20.40;5.32;;;5.80;99.90;;;;;;4882969;29;20067;-92
2021/12/11 10:02:21;;;;;;;15.75;4.30;;;5.90;99.90;;;;;;4912274;29;20055;-92
2021/12/11 10:05:44;;;;;;;24.00;7.22;;;5.90;99.90;;;;;;4865948;29;20049;-92
2021/12/11 10:08:38;;;;;;;25.30;7.25;;;6.00;99.90;;;;;;4814360;29;20478;-93
2021/12/11 10:11:30;;;;;;;9.98;4.55;;;5.60;99.90;;;;;;4832107;29;20070;-93
2021/12/11 10:14:36;;;;;;;21.23;5.75;;;5.50;99.90;;;;;;4914971;29;20056;-91
2021/12/11 10:17:34;;;;;;;20.92;6.18;;;6.20;99.90;;;;;;4896632;29;20056;-90
2021/12/11 10:20:16;;;;;;;19.20;4.50;;;7.80;99.90;;;;;;4893830;29;20606;-90
2021/12/11 10:23:07;;;;;;;11.35;5.22;;;5.10;99.90;;;;;;4899433;29;20059;-89
2021/12/11 10:25:46;;;;;;;21.83;5.97;;;7.90;99.90;;;;;;4885786;29;20045;-91
2021/12/11 10:28:27;;;;;;;25.10;4.60;;;6.50;99.90;;;;;;4885434;29;20377;-89
2021/12/11 10:31:28;;;;;;;23.50;6.63;;;6.60;99.90;;;;;;4906154;29;20036;-90
2021/12/11 10:34:21;;;;;;;15.30;5.95;;;6.60;99.90;;;;;;4919890;29;20043;-93
2021/12/11 10:37:36;;;;;;;12.50;3.88;;;6.70;99.90;;;;;;4938377;28;20036;-93
2021/12/11 10:40:46;;;;;;;16.17;4.00;;;6.80;99.90;;;;;;4907796;29;20040;-93
2021/12/11 10:47:04;;;;;;;20.13;5.35;;;7.00;99.90;;;;;;4953739;28;20036;-94
2021/12/11 10:50:36;;;;;;;20.30;5.32;;;7.00;99.90;;;;;;4912317;29;20048;-94
2021/12/11 10:57:46;;;;;;;19.17;6.68;;;7.20;99.90;;;;;;4865723;29;20103;-92
2021/12/11 11:01:08;;;;;;;22.90;7.25;;;7.10;99.90;;;;;;4860170;29;20037;-94
2021/12/11 11:04:02;;;;;;;18.20;4.30;;;7.40;99.90;;;;;;4849453;29;20056;-92
2021/12/11 11:07:29;;;;;;;18.85;6.80;;;7.40;99.90;;;;;;4438345;23;20079;-94
2021/12/11 11:10:46;;;;;;;19.13;5.13;;;7.60;99.90;;;;;;5031976;23;20054;-93
2021/12/11 11:17:30;;;;;;;17.65;5.57;;;7.60;99.90;;;;;;4936719;29;20032;-94
2021/12/11 11:21:17;;;;;;;17.75;5.85;;;8.00;99.90;;;;;;4873091;29;20064;-93
2021/12/11 11:24:03;;;;;;;17.52;5.30;;;7.70;99.90;;;;;;4953321;23;20058;-91
2021/12/11 11:27:14;;;;;;;18.77;5.05;;;7.90;99.90;;;;;;5316173;23;20055;-92
2021/12/11 11:30:27;;;;;;;9.20;4.95;;;8.10;99.90;;;;;;4918423;23;20057;-94
2021/12/11 11:33:37;;;;;;;14.05;5.25;;;8.10;99.90;;;;;;4870855;29;20033;-94
2021/12/11 11:37:47;;;;;;;20.02;4.70;;;8.20;99.90;;;;;;4872406;29;20041;-95
2021/12/11 11:41:42;;;;;;;12.30;4.72;;;8.40;99.90;;;;;;4856940;29;20053;-91
2021/12/11 11:44:28;;;;;;;20.00;7.03;;;8.40;99.90;;;;;;4850126;29;20065;-90
2021/12/11 11:46:59;;;;;;;16.23;4.80;;;8.50;99.90;;;;;;4834104;29;20041;-88
2021/12/11 11:49:30;;;;;;;21.42;6.32;;;8.50;99.90;;;;;;4873594;29;20058;-90
2021/12/11 11:52:11;;;;;;;12.13;4.47;;;8.60;99.90;;;;;;4851381;29;20049;-89
2021/12/11 11:54:45;;;;;;;20.05;5.35;;;8.70;99.90;;;;;;4846109;29;20057;-88
2021/12/11 11:57:30;;;;;;;22.27;5.90;;;8.70;99.90;;;;;;4851613;29;20065;-87
2021/12/11 12:00:00;;;;;;;12.10;4.10;;;8.70;99.90;;;;;;4847220;29;20623;-87
2021/12/11 12:02:40;;;;;;;14.50;4.07;;;8.80;99.90;;;;;;4834896;29;20046;-87
2021/12/11 12:05:11;;;;;;;28.85;5.70;;;8.80;99.90;;;;;;5035591;23;20027;-89
2021/12/11 12:07:39;;;;;;;18.73;6.30;;;8.80;99.90;;;;;;4881353;29;20064;-88
2021/12/11 12:10:12;;;;;;;15.93;4.88;;;8.90;99.90;;;;;;4881380;29;20066;-88
2021/12/11 12:12:41;;;;;;;37.97;8.70;;;8.60;99.90;;;;;;4894785;29;20047;-90
2021/12/11 12:15:15;;;;;;;20.35;5.15;;;9.80;99.90;;;;;;4899627;29;20068;-89
2021/12/11 12:17:44;;;;;;;18.95;6.82;;;8.90;99.90;;;;;;4912733;29;20044;-89
2021/12/11 12:20:21;;;;;;;17.77;4.60;;;8.90;99.90;;;;;;4883225;29;20064;-91
2021/12/11 12:22:59;;;;;;;17.30;5.65;;;8.90;99.90;;;;;;4893766;29;20266;-89
2021/12/11 12:25:28;;;;;;;17.33;5.60;;;8.90;99.90;;;;;;4865979;29;20048;-87
2021/12/11 12:27:56;;;;;;;15.20;5.18;;;8.90;99.90;;;;;;4883208;29;20052;-88
2021/12/11 12:30:35;;;;;;;24.13;6.28;;;8.90;99.90;;;;;;4881808;29;20064;-88
2021/12/11 12:33:06;;;;;;;19.55;4.72;;;8.90;99.90;;;;;;4885898;29;20052;-87
2021/12/11 12:36:01;;;;;;;17.08;5.38;;;8.90;99.90;;;;;;4882647;29;20060;-88
2021/12/11 12:38:48;;;;;;;14.20;4.53;;;8.30;99.90;;;;;;4897010;29;20528;-89
2021/12/11 12:41:31;;;;;;;18.65;4.88;;;10.00;99.90;;;;;;4891667;29;20041;-87
2021/12/11 12:44:19;;;;;;;12.00;3.88;;;8.90;99.90;;;;;;4846777;29;20049;-88
2021/12/11 12:47:15;;;;;;;29.35;5.05;;;8.90;99.90;;;;;;4890442;29;20063;-88
2021/12/11 12:49:51;;;;;;;18.55;5.68;;;8.90;99.90;;;;;;4907004;29;20053;-88
2021/12/11 12:52:28;;;;;;;29.40;5.95;;;9.00;99.90;;;;;;4869397;29;20544;-89
2021/12/11 12:54:58;;;;;;;16.75;4.22;;;9.00;99.90;;;;;;4894306;29;20056;-90
2021/12/11 12:57:37;;;;;;;25.80;5.85;;;8.90;99.90;;;;;;4883397;29;20068;-87
2021/12/11 13:00:21;;;;;;;12.93;4.05;;;8.90;99.90;;;;;;4886332;29;20048;-90
2021/12/11 13:02:52;;;;;;;17.70;4.22;;;10.10;99.90;;;;;;4882092;29;20053;-90
2021/12/11 13:05:29;;;;;;;21.73;4.80;;;8.90;99.90;;;;;;4882258;29;20277;-90
2021/12/11 13:08:09;;;;;;;12.93;4.70;;;8.90;99.90;;;;;;4900942;23;20053;-88
2021/12/11 13:10:56;;;;;;;17.33;4.60;;;8.90;99.90;;;;;;4882032;29;20049;-90
2021/12/11 13:13:26;;;;;;;24.30;6.10;;;8.90;99.90;;;;;;4879603;29;20064;-87
2021/12/11 13:16:11;;;;;;;15.48;5.43;;;8.90;99.90;;;;;;4854352;29;20045;-90
2021/12/11 13:19:21;;;;;;;14.85;3.83;;;8.90;99.90;;;;;;4872644;29;20063;-90
2021/12/11 13:22:09;;;;;;;18.52;4.38;;;8.90;99.90;;;;;;4886091;24;20047;-90
2021/12/11 13:24:53;;;;;;;26.90;6.20;;;9.10;99.90;;;;;;4863305;29;20064;-87
2021/12/11 13:27:27;;;;;;;10.48;3.63;;;8.80;99.90;;;;;;4888168;29;20049;-88
2021/12/11 13:30:04;;;;;;;17.05;5.10;;;8.80;99.90;;;;;;4854233;29;20049;-92
2021/12/11 13:33:14;;;;;;;14.40;5.55;;;8.90;99.90;;;;;;4867973;29;20053;-91
2021/12/11 13:35:47;;;;;;;20.55;5.68;;;8.80;99.90;;;;;;4844001;29;20061;-90
2021/12/11 13:39:30;;;;;;;18.08;5.03;;;8.80;99.90;;;;;;4868633;29;20034;-90
2021/12/11 13:42:04;;;;;;;26.25;6.85;;;8.80;99.90;;;;;;4868405;29;20034;-92
2021/12/11 13:45:03;;;;;;;15.80;6.38;;;8.80;99.90;;;;;;4862756;29;20380;-88
2021/12/11 13:48:22;;;;;;;26.08;6.60;;;8.60;99.90;;;;;;4860655;29;20056;-90
2021/12/11 13:51:26;;;;;;;20.83;6.45;;;8.70;99.90;;;;;;4883025;29;20162;-91
2021/12/11 13:54:01;;;;;;;24.48;7.25;;;8.70;99.90;;;;;;4873413;29;20060;-89
2021/12/11 13:56:47;;;;;;;23.48;6.25;;;8.70;99.90;;;;;;4860853;29;20059;-88
2021/12/11 13:59:19;;;;;;;16.65;7.25;;;8.70;99.90;;;;;;4852800;29;20065;-91
2021/12/11 14:02:31;;;;;;;23.20;5.85;;;8.70;99.90;;;;;;4851551;29;20038;-92
2021/12/11 14:05:07;;;;;;;22.77;5.88;;;8.70;99.90;;;;;;4870890;29;20033;-89
2021/12/11 14:07:54;;;;;;;14.20;5.72;;;8.70;99.90;;;;;;4878464;29;20194;-92
2021/12/11 14:10:32;;;;;;;25.05;5.63;;;8.70;99.90;;;;;;4877941;29;20052;-90
2021/12/11 14:13:13;;;;;;;16.33;5.80;;;8.80;99.90;;;;;;4869452;29;20050;-93
2021/12/11 14:15:45;;;;;;;22.27;5.68;;;8.60;99.90;;;;;;4864359;29;20057;-91
2021/12/11 14:18:17;;;;;;;26.48;6.72;;;8.80;99.90;;;;;;4878427;29;20045;-90
2021/12/11 14:20:49;;;;;;;19.48;6.38;;;8.70;99.90;;;;;;4865837;29;20060;-93
2021/12/11 14:24:03;;;;;;;18.48;6.53;;;8.70;99.90;;;;;;4882876;29;20058;-94
2021/12/11 14:26:57;;;;;;;21.08;6.72;;;9.00;99.90;;;;;;4879499;29;20061;-90
2021/12/11 14:29:35;;;;;;;21.05;6.95;;;8.70;99.90;;;;;;4867406;29;20059;-91
2021/12/11 14:32:32;;;;;;;16.58;4.25;;;8.60;99.90;;;;;;4866490;29;20059;-89
2021/12/11 14:35:32;;;;;;;23.38;5.75;;;8.70;99.90;;;;;;4861123;29;20057;-92
2021/12/11 14:42:07;;;;;;;17.30;6.30;;;8.70;99.90;;;;;;5093881;23;20406;-91
2021/12/11 14:44:45;;;;;;;32.25;11.57;;;8.60;99.90;;;;;;4906831;29;20047;-91
2021/12/11 14:47:48;;;;;;;25.38;7.25;;;8.60;99.90;;;;;;4887418;29;20070;-90
2021/12/11 14:54:17;;;;;;;24.40;8.25;;;8.60;99.90;;;;;;5000112;23;20044;-90
2021/12/11 14:56:51;;;;;;;25.17;6.68;;;8.60;99.90;;;;;;4922188;29;20044;-89
2021/12/11 15:04:04;;;;;;;22.30;7.60;;;7.90;99.90;;;;;;4893055;29;20052;-92
2021/12/11 15:34:10;;;;;;;;;;;;;;;;;;;;;
2021/12/11 15:37:38;;;;;;;26.30;6.20;;;8.20;99.90;;;;;;6114567;23;20032;-86
2021/12/11 15:41:33;;;;;;;27.35;8.18;;;9.20;99.90;;;;;;6112607;23;20305;-88
2021/12/11 15:45:02;;;;;;;21.02;7.95;;;8.10;99.90;;;;;;6091074;23;20033;-90
2021/12/11 15:52:34;;;;;;;23.05;6.05;;;7.90;99.90;;;;;;6037548;23;20037;-84
2021/12/11 15:55:29;;;;;;;;;;;;;;;;;;;;;
2021/12/11 15:59:37;;;;;;;28.83;7.05;;;8.20;99.90;;;;;;6101754;23;20013;-88
2021/12/11 16:10:51;;;;;;;;;;;;;;;;;;;;;
2021/12/11 16:14:02;;;;;;;17.30;5.32;;;8.10;99.90;;;;;;5945829;24;20024;-86
2021/12/11 16:18:51;;;;;;;;;;;;;;;;;;;;;
2021/12/11 16:26:52;;;;;;;31.70;8.38;;;7.40;99.90;;;;;;6004829;23;20472;-87
2021/12/11 16:30:26;;;;;;;;;;;;;;;;;;;;;
2021/12/11 16:33:29;;;;;;;27.00;6.90;;;8.00;99.90;;;;;;6033122;23;20464;-82
2021/12/11 16:36:04;;;;;;;35.67;10.27;;;8.10;99.90;;;;;;6034077;23;20030;-79
2021/12/11 16:38:40;;;;;;;26.48;8.27;;;8.10;99.90;;;;;;6061913;23;20033;-79
2021/12/11 16:41:22;;;;;;;30.35;9.65;;;8.00;99.90;;;;;;6171644;23;20024;-84
2021/12/11 16:43:59;;;;;;;24.25;9.30;;;8.00;99.90;;;;;;6192490;23;20031;-80
2021/12/11 16:46:42;;;;;;;28.20;7.25;;;8.00;99.90;;;;;;6192247;23;20021;-82
2021/12/11 16:49:13;;;;;;;22.17;7.43;;;8.00;99.90;;;;;;6195037;23;20031;-83
2021/12/11 16:51:44;;;;;;;21.03;7.63;;;8.00;99.90;;;;;;6200740;23;20506;-81
2021/12/11 16:54:43;;;;;;;21.65;7.60;;;8.00;99.90;;;;;;6189868;23;20025;-79
2021/12/11 16:57:13;;;;;;;19.13;6.55;;;8.00;99.90;;;;;;6199811;23;20042;-78
2021/12/11 16:59:49;;;;;;;23.55;7.32;;;8.00;99.90;;;;;;6200849;23;20025;-84
2021/12/11 17:02:21;;;;;;;21.85;5.65;;;8.30;99.90;;;;;;6199284;23;20028;-83
2021/12/11 17:04:51;;;;;;;19.52;6.72;;;8.00;99.90;;;;;;6173946;23;20021;-81
2021/12/11 17:07:21;;;;;;;30.40;9.60;;;8.10;99.90;;;;;;6200417;23;20024;-81
2021/12/11 17:09:53;;;;;;;43.65;9.77;;;8.10;99.90;;;;;;6174711;23;20032;-81
2021/12/11 17:12:25;;;;;;;28.13;10.27;;;8.10;99.90;;;;;;6201728;23;20013;-84
2021/12/11 17:14:59;;;;;;;30.42;11.45;;;8.10;99.90;;;;;;6144438;23;20031;-84
2021/12/11 17:17:30;;;;;;;34.88;10.30;;;8.70;99.90;;;;;;6181433;23;20021;-81
2021/12/11 17:19:58;;;;;;;22.63;7.43;;;6.80;99.90;;;;;;6195541;23;20371;-79
2021/12/11 17:22:29;;;;;;;22.30;5.78;;;8.10;99.90;;;;;;6169396;23;20024;-78
2021/12/11 17:24:57;;;;;;;19.10;6.75;;;8.10;99.90;;;;;;6198837;23;20017;-78
2021/12/11 17:27:27;;;;;;;25.00;7.95;;;7.80;99.90;;;;;;6170373;23;20031;-79
2021/12/11 17:29:56;;;;;;;20.75;6.93;;;8.20;99.90;;;;;;6197618;23;20013;-82
2021/12/11 17:32:24;;;;;;;15.10;5.68;;;8.20;99.90;;;;;;6199207;23;20031;-84
2021/12/11 17:34:52;;;;;;;21.83;5.55;;;8.20;99.90;;;;;;6195264;23;20356;-79
2021/12/11 17:37:23;;;;;;;24.85;7.68;;;8.30;99.90;;;;;;6169019;23;20029;-80